Etna-Troy, Indiana
Current Conditions -  °F | °C
As of 12:35 AM on Monday 20 Oct 2014 (Local Time) from KASW Reporting Station
Scattered Clouds Scattered Clouds  
Wind Chill: 46°   Ceiling: Unl
Heat Index: 48°   Visibility: 10mi
Dew Point: 41°   Wind: 5mph
Humidity: 76%   Direction: 230°SW
Pressure: 29.97"   Gusts: NA
Location:  41.1572°N, 85.6279°W
Report Text: KASW 200435Z AUTO 23004KT 10SM SCT095 09/05 A2997 RMK AO2
Loading
Personal Weather Stations






























Interactive Weather Map
Tropical Storm Tracking
New forecast layout! Learn more

10-Day Weather Forecast

Advertisements
Track Severe Weather on mobile